createdAt,value
2022-09-22T00:01:55.821Z,8.72
2022-09-22T00:04:00.433Z,8.69
2022-09-22T00:06:07.317Z,8.66
2022-09-22T00:08:10.205Z,8.63
2022-09-22T00:10:13.082Z,8.64
2022-09-22T00:12:16.178Z,8.60
2022-09-22T00:14:22.417Z,8.60
2022-09-22T00:16:28.048Z,8.57
2022-09-22T00:18:31.154Z,8.56
2022-09-22T00:20:34.093Z,8.55
2022-09-22T00:22:37.091Z,8.51
2022-09-22T00:24:40.317Z,8.47
2022-09-22T00:26:43.491Z,8.44
2022-09-22T00:28:48.325Z,8.41
2022-09-22T00:30:52.800Z,8.37
2022-09-22T00:32:56.130Z,8.34
2022-09-22T00:34:59.264Z,8.32
2022-09-22T00:37:02.291Z,8.30
2022-09-22T00:39:05.512Z,8.31
2022-09-22T00:41:16.933Z,8.32
2022-09-22T00:43:22.712Z,8.28
2022-09-22T00:45:25.647Z,8.26
2022-09-22T00:47:34.490Z,8.25
2022-09-22T00:49:43.243Z,8.23
2022-09-22T00:51:46.218Z,8.21
2022-09-22T00:53:49.444Z,8.16
2022-09-22T00:55:55.483Z,8.14
2022-09-22T00:57:58.656Z,8.12
2022-09-22T01:00:02.953Z,8.10
2022-09-22T01:02:06.369Z,8.08
2022-09-22T01:04:10.801Z,8.11
2022-09-22T01:06:17.490Z,8.12
2022-09-22T01:08:21.665Z,8.11
2022-09-22T01:10:26.312Z,8.08
2022-09-22T01:12:30.800Z,8.08
2022-09-22T01:14:43.951Z,8.05
2022-09-22T01:16:53.402Z,8.02
2022-09-22T01:19:08.378Z,8.01
2022-09-22T01:21:23.989Z,8.00
2022-09-22T01:23:54.048Z,8.03
2022-09-22T01:26:08.439Z,8.03
2022-09-22T01:28:24.499Z,7.99
2022-09-22T01:30:32.609Z,7.97
2022-09-22T01:32:41.642Z,7.94
2022-09-22T01:34:48.932Z,7.93
2022-09-22T01:36:58.330Z,7.93
2022-09-22T01:39:07.542Z,7.91
2022-09-22T01:41:15.188Z,7.88
2022-09-22T01:43:27.917Z,7.87
2022-09-22T01:45:34.636Z,7.86
2022-09-22T01:47:40.747Z,7.86
2022-09-22T01:49:46.884Z,7.87
2022-09-22T01:51:53.009Z,7.86
2022-09-22T01:54:00.623Z,7.83
2022-09-22T01:56:06.468Z,7.82
2022-09-22T01:58:13.004Z,7.83
2022-09-22T02:00:16.496Z,7.84
2022-09-22T02:02:25.771Z,7.82
2022-09-22T02:04:34.234Z,7.78
2022-09-22T02:06:39.107Z,7.80
2022-09-22T02:08:45.287Z,7.80
2022-09-22T02:10:48.976Z,7.79
2022-09-22T02:12:52.178Z,7.78
2022-09-22T02:14:55.117Z,7.78
2022-09-22T02:16:58.239Z,7.79
2022-09-22T02:19:12.979Z,7.77
2022-09-22T02:21:17.656Z,7.73
2022-09-22T02:23:21.054Z,7.73
2022-09-22T02:25:24.864Z,7.72
2022-09-22T02:27:36.468Z,7.68
2022-09-22T02:29:43.000Z,7.67
2022-09-22T02:31:46.281Z,7.67
2022-09-22T02:33:49.703Z,7.70
2022-09-22T02:36:00.743Z,7.71
2022-09-22T02:38:06.430Z,7.70
2022-09-22T02:40:14.663Z,7.70
2022-09-22T02:42:25.983Z,7.67
2022-09-22T02:44:31.999Z,7.67
2022-09-22T02:46:40.111Z,7.67
2022-09-22T02:48:47.588Z,7.67
2022-09-22T02:50:50.519Z,7.66
2022-09-22T02:52:59.325Z,7.68
2022-09-22T02:55:02.255Z,7.69
2022-09-22T02:57:05.240Z,7.71
2022-09-22T02:59:09.400Z,7.69
2022-09-22T03:01:12.474Z,7.65
2022-09-22T03:03:15.500Z,7.65
2022-09-22T03:05:18.434Z,7.68
2022-09-22T03:07:21.326Z,7.67
2022-09-22T03:09:25.657Z,7.63
2022-09-22T03:11:28.586Z,7.61
2022-09-22T03:13:31.523Z,7.62
2022-09-22T03:15:34.559Z,7.62
2022-09-22T03:17:37.639Z,7.58
2022-09-22T03:19:40.583Z,7.53
2022-09-22T03:21:43.834Z,7.50
2022-09-22T03:23:46.805Z,7.48
2022-09-22T03:25:51.066Z,7.45
2022-09-22T03:27:54.013Z,7.45
2022-09-22T03:29:57.004Z,7.45
2022-09-22T03:31:59.926Z,7.44
2022-09-22T03:34:02.927Z,7.40
2022-09-22T03:36:06.728Z,7.39
2022-09-22T03:38:09.665Z,7.39
2022-09-22T03:40:12.699Z,7.37
2022-09-22T03:42:17.108Z,7.35
2022-09-22T03:44:20.008Z,7.33
2022-09-22T03:46:23.001Z,7.31
2022-09-22T03:48:26.538Z,7.29
2022-09-22T03:50:29.688Z,7.28
2022-09-22T03:52:33.415Z,7.26
2022-09-22T03:54:37.094Z,7.25
2022-09-22T03:56:40.145Z,7.23
2022-09-22T03:58:44.991Z,7.22
2022-09-22T04:00:49.448Z,7.18
2022-09-22T04:02:52.930Z,7.15
2022-09-22T04:04:56.432Z,7.12
2022-09-22T04:07:03.454Z,7.11
2022-09-22T04:09:10.221Z,7.08
2022-09-22T04:11:13.087Z,7.05
2022-09-22T04:13:17.136Z,7.06
2022-09-22T04:15:21.396Z,7.05
2022-09-22T04:17:24.295Z,7.04
2022-09-22T04:19:27.388Z,7.03
2022-09-22T04:21:30.252Z,7.00
2022-09-22T04:23:33.251Z,6.98
2022-09-22T04:25:36.226Z,6.97
2022-09-22T04:27:39.177Z,6.98
2022-09-22T04:29:42.090Z,7.00
2022-09-22T04:31:46.496Z,6.98
2022-09-22T04:33:49.468Z,6.97
2022-09-22T04:35:53.200Z,6.95
2022-09-22T04:37:56.491Z,6.95
2022-09-22T04:40:00.194Z,6.95
2022-09-22T04:42:03.487Z,6.94
2022-09-22T04:44:07.760Z,6.95
2022-09-22T04:46:11.918Z,6.96
2022-09-22T04:48:17.832Z,6.95
2022-09-22T04:50:23.148Z,6.95
2022-09-22T04:52:27.171Z,6.92
2022-09-22T04:54:31.309Z,6.93
2022-09-22T04:56:35.061Z,6.96
2022-09-22T04:58:39.100Z,6.92
2022-09-22T05:00:43.243Z,6.91
2022-09-22T05:02:47.958Z,6.87
2022-09-22T05:04:53.575Z,6.92
2022-09-22T05:06:56.810Z,6.93
2022-09-22T05:08:59.798Z,6.96
2022-09-22T05:11:06.580Z,6.96
2022-09-22T05:13:09.531Z,6.96
2022-09-22T05:15:14.235Z,6.94
2022-09-22T05:17:17.218Z,6.95
2022-09-22T05:19:20.971Z,6.96
2022-09-22T05:21:25.306Z,6.98
2022-09-22T05:23:28.305Z,6.96
2022-09-22T05:25:31.364Z,6.98
2022-09-22T05:27:34.322Z,6.99
2022-09-22T05:29:37.342Z,7.07
2022-09-22T05:31:40.309Z,7.23
2022-09-22T05:33:43.356Z,7.39
2022-09-22T05:35:46.364Z,7.51
2022-09-22T05:37:52.233Z,7.66
2022-09-22T05:39:55.283Z,7.79
2022-09-22T05:41:58.258Z,7.94
2022-09-22T05:44:01.389Z,8.09
2022-09-22T05:46:04.505Z,8.23
2022-09-22T05:48:07.688Z,8.39
2022-09-22T05:50:12.418Z,8.52
2022-09-22T05:52:15.417Z,8.66
2022-09-22T05:54:23.223Z,8.77
2022-09-22T05:56:26.547Z,8.89
2022-09-22T05:58:29.594Z,9.00
2022-09-22T06:00:33.483Z,9.11
2022-09-22T06:02:37.107Z,9.26
2022-09-22T06:04:40.213Z,9.39
2022-09-22T06:06:43.157Z,9.55
2022-09-22T06:08:48.995Z,9.71
2022-09-22T06:10:53.583Z,9.82
2022-09-22T06:12:59.434Z,9.91
2022-09-22T06:15:02.395Z,10.03
2022-09-22T06:17:10.635Z,10.18
2022-09-22T06:19:14.457Z,10.30
2022-09-22T06:21:17.582Z,10.42
2022-09-22T06:23:20.526Z,10.48
2022-09-22T06:25:23.613Z,10.58
2022-09-22T06:27:27.908Z,10.71
2022-09-22T06:29:30.955Z,10.91
2022-09-22T06:31:33.951Z,11.00
2022-09-22T06:33:36.935Z,11.08
2022-09-22T06:35:42.911Z,11.25
2022-09-22T06:37:47.786Z,11.34
2022-09-22T06:39:50.814Z,11.46
2022-09-22T06:41:56.338Z,11.62
2022-09-22T06:44:01.012Z,11.72
2022-09-22T06:46:04.084Z,11.87
2022-09-22T06:48:10.102Z,12.03
2022-09-22T06:50:13.550Z,12.15
2022-09-22T06:52:16.612Z,12.30
2022-09-22T06:54:22.546Z,12.42
2022-09-22T06:56:29.607Z,12.60
2022-09-22T06:58:46.980Z,12.76
2022-09-22T07:01:09.609Z,12.96
2022-09-22T07:03:17.893Z,13.08
2022-09-22T07:05:21.049Z,13.22
2022-09-22T07:07:27.349Z,13.34
2022-09-22T07:09:30.942Z,13.39
2022-09-22T07:11:38.878Z,13.52
2022-09-22T07:13:44.174Z,13.61
2022-09-22T07:15:47.232Z,13.68
2022-09-22T07:17:54.014Z,13.79
2022-09-22T07:19:58.517Z,13.84
2022-09-22T07:22:03.147Z,13.92
2022-09-22T07:24:08.118Z,14.06
2022-09-22T07:26:13.043Z,14.20
2022-09-22T07:28:15.989Z,14.32
2022-09-22T07:30:20.476Z,14.40
2022-09-22T07:32:23.486Z,14.51
2022-09-22T07:34:27.783Z,14.64
2022-09-22T07:36:32.273Z,14.78
2022-09-22T07:38:36.865Z,14.81
2022-09-22T07:40:39.819Z,14.92
2022-09-22T07:42:42.913Z,15.09
2022-09-22T07:45:02.596Z,15.22
2022-09-22T07:47:05.799Z,15.34
2022-09-22T07:49:08.226Z,15.44
2022-09-22T07:51:16.778Z,15.49
2022-09-22T07:53:20.105Z,15.61
2022-09-22T07:55:24.183Z,15.71
2022-09-22T07:57:30.288Z,15.83
2022-09-22T07:59:33.755Z,16.01
2022-09-22T08:01:37.551Z,16.15
2022-09-22T08:03:40.630Z,16.32
2022-09-22T08:05:43.521Z,16.41
2022-09-22T08:07:48.007Z,16.48
2022-09-22T08:09:51.100Z,16.52
2022-09-22T08:11:54.756Z,16.55
2022-09-22T08:13:59.869Z,16.58
2022-09-22T08:16:05.058Z,16.67
2022-09-22T08:18:08.325Z,16.74
2022-09-22T08:20:12.741Z,16.86
2022-09-22T08:22:15.741Z,16.99
2022-09-22T08:24:22.193Z,17.01
2022-09-22T08:26:25.764Z,17.06
2022-09-22T08:28:28.729Z,17.20
2022-09-22T08:30:31.741Z,17.25
2022-09-22T08:32:36.032Z,17.46
2022-09-22T08:34:38.996Z,17.69
2022-09-22T08:36:48.660Z,17.87
2022-09-22T08:38:51.882Z,17.99
2022-09-22T08:41:07.264Z,18.11
2022-09-22T08:43:12.832Z,18.27
2022-09-22T08:45:27.131Z,18.36
2022-09-22T08:48:06.610Z,18.50
2022-09-22T08:50:33.901Z,18.61
2022-09-22T08:52:39.834Z,18.75
2022-09-22T08:54:43.704Z,18.75
2022-09-22T08:56:57.495Z,18.85
2022-09-22T08:59:05.240Z,18.96
2022-09-22T09:01:18.568Z,19.09
2022-09-22T09:03:27.834Z,19.25
2022-09-22T09:05:50.802Z,19.32
2022-09-22T09:08:00.176Z,19.29
2022-09-22T09:10:08.478Z,19.26
2022-09-22T09:12:27.960Z,19.34
2022-09-22T09:14:50.491Z,19.37
2022-09-22T09:16:56.983Z,19.38
2022-09-22T09:19:06.940Z,19.43
2022-09-22T09:21:14.624Z,19.48
2022-09-22T09:23:19.261Z,19.55
2022-09-22T09:25:28.287Z,19.62
2022-09-22T09:27:36.999Z,19.65
2022-09-22T09:29:44.478Z,19.71
2022-09-22T09:31:49.256Z,19.71
2022-09-22T09:33:56.582Z,19.78
2022-09-22T09:35:59.823Z,19.54
2022-09-22T09:38:03.736Z,19.44
2022-09-22T09:40:15.268Z,19.48
2022-09-22T09:42:23.323Z,19.54
2022-09-22T09:44:30.447Z,19.56
2022-09-22T09:46:42.760Z,19.48
2022-09-22T09:49:02.725Z,19.37
2022-09-22T09:51:06.460Z,19.50
2022-09-22T09:53:30.727Z,19.56
2022-09-22T09:55:35.291Z,19.56
2022-09-22T09:58:06.174Z,19.71
2022-09-22T10:00:31.790Z,19.68
2022-09-22T10:02:37.269Z,19.49
2022-09-22T10:04:40.971Z,19.41
2022-09-22T10:06:44.775Z,19.45
2022-09-22T10:08:51.445Z,19.47
2022-09-22T10:10:58.181Z,19.48
2022-09-22T10:13:23.079Z,19.44
2022-09-22T10:15:28.095Z,19.32
2022-09-22T10:17:34.701Z,19.32
2022-09-22T10:19:37.771Z,19.32
2022-09-22T10:21:40.734Z,19.33
2022-09-22T10:23:44.810Z,19.33
2022-09-22T10:25:49.220Z,19.32
2022-09-22T10:28:06.958Z,19.30
2022-09-22T10:30:23.921Z,19.15
2022-09-22T10:32:28.289Z,19.14
2022-09-22T10:34:33.348Z,19.21
2022-09-22T10:36:37.497Z,19.17
2022-09-22T10:38:41.588Z,19.23
2022-09-22T10:40:47.588Z,19.14
2022-09-22T10:42:51.483Z,19.16
2022-09-22T10:44:57.282Z,19.11
2022-09-22T10:47:12.062Z,18.99
2022-09-22T10:49:21.938Z,19.03
2022-09-22T10:51:39.887Z,18.94
2022-09-22T10:54:05.197Z,18.93
2022-09-22T10:56:14.286Z,18.93
2022-09-22T10:58:28.193Z,18.95
2022-09-22T11:00:36.721Z,18.95
2022-09-22T11:03:22.371Z,18.88
2022-09-22T11:05:55.717Z,18.65
2022-09-22T11:08:22.840Z,18.40
2022-09-22T11:10:51.270Z,18.49
2022-09-22T11:13:01.023Z,18.51
2022-09-22T11:15:16.504Z,18.54
2022-09-22T11:17:31.417Z,18.54
2022-09-22T11:19:58.698Z,18.45
2022-09-22T11:22:18.068Z,18.50
2022-09-22T11:24:48.115Z,18.51
2022-09-22T11:26:53.517Z,18.43
2022-09-22T11:29:11.047Z,18.35
2022-09-22T11:31:20.809Z,18.28
2022-09-22T11:33:45.713Z,18.36
2022-09-22T11:36:06.192Z,18.40
2022-09-22T11:38:26.043Z,18.48
2022-09-22T11:40:37.059Z,18.45
2022-09-22T11:42:46.173Z,18.51
2022-09-22T11:44:56.036Z,18.59
2022-09-22T11:47:12.539Z,18.63
2022-09-22T11:49:23.627Z,18.67
2022-09-22T11:51:36.501Z,18.72
2022-09-22T11:53:58.443Z,18.79
2022-09-22T11:56:21.475Z,18.84
2022-09-22T11:58:27.783Z,18.86
2022-09-22T12:00:35.856Z,18.92
2022-09-22T12:02:41.291Z,18.94
2022-09-22T12:04:47.927Z,18.92
2022-09-22T12:06:52.957Z,18.94
2022-09-22T12:09:01.286Z,18.92
2022-09-22T12:11:07.700Z,18.93
2022-09-22T12:13:15.296Z,18.95
2022-09-22T12:15:23.485Z,19.00
2022-09-22T12:17:31.408Z,19.05
2022-09-22T12:19:41.850Z,19.08
2022-09-22T12:21:51.199Z,19.16
2022-09-22T12:23:55.118Z,19.16
2022-09-22T12:26:02.930Z,19.06
2022-09-22T12:28:05.855Z,19.09
2022-09-22T12:30:21.538Z,19.00
2022-09-22T12:32:26.257Z,18.99
2022-09-22T12:34:32.602Z,19.00
2022-09-22T12:36:38.496Z,18.93
2022-09-22T12:38:41.575Z,18.94
2022-09-22T12:40:49.521Z,19.04
2022-09-22T12:42:54.734Z,19.06
2022-09-22T12:44:59.150Z,19.02
2022-09-22T12:47:04.433Z,19.02
2022-09-22T12:49:09.201Z,18.86
2022-09-22T12:51:33.224Z,18.73
2022-09-22T12:53:40.137Z,18.76
2022-09-22T12:55:46.095Z,18.78
2022-09-22T12:57:50.297Z,18.77
2022-09-22T13:00:12.938Z,18.79
2022-09-22T13:02:23.566Z,18.77
2022-09-22T13:04:26.704Z,18.70
2022-09-22T13:07:06.321Z,18.72
2022-09-22T13:09:20.485Z,18.62
2022-09-22T13:11:57.097Z,18.53
2022-09-22T13:14:00.158Z,18.52
2022-09-22T13:16:06.844Z,18.52
2022-09-22T13:18:34.816Z,18.50
2022-09-22T13:20:37.891Z,18.48
2022-09-22T13:22:40.871Z,18.51
2022-09-22T13:24:43.884Z,18.52
2022-09-22T13:26:46.803Z,18.54
2022-09-22T13:29:00.392Z,18.56
2022-09-22T13:31:11.272Z,18.59
2022-09-22T13:33:22.191Z,18.56
2022-09-22T13:35:27.248Z,18.45
2022-09-22T13:37:31.121Z,18.41
2022-09-22T13:39:36.302Z,18.43
2022-09-22T13:41:44.144Z,18.49
2022-09-22T13:43:50.135Z,18.56
2022-09-22T13:45:53.660Z,18.60
2022-09-22T13:48:07.553Z,18.58
2022-09-22T13:50:14.561Z,18.56
2022-09-22T13:52:21.640Z,18.48
2022-09-22T13:54:27.300Z,18.48
2022-09-22T13:56:30.291Z,18.47
2022-09-22T13:58:36.738Z,18.50
2022-09-22T14:01:08.803Z,18.57
2022-09-22T14:03:07.311Z,18.58
2022-09-22T14:05:18.247Z,18.56
2022-09-22T14:07:22.572Z,18.60
2022-09-22T14:09:26.243Z,18.64
2022-09-22T14:11:31.997Z,18.68
2022-09-22T14:13:39.425Z,18.70
2022-09-22T14:15:44.220Z,18.73
2022-09-22T14:17:47.222Z,18.71
2022-09-22T14:19:56.195Z,18.70
2022-09-22T14:22:01.008Z,18.74
2022-09-22T14:24:04.116Z,18.70
2022-09-22T14:26:23.436Z,18.63
2022-09-22T14:28:28.490Z,18.59
2022-09-22T14:30:41.857Z,18.47
2022-09-22T14:32:49.139Z,18.37
2022-09-22T14:34:57.527Z,18.38
2022-09-22T14:37:02.452Z,18.39
2022-09-22T14:39:10.028Z,18.40
2022-09-22T14:41:22.966Z,18.41
2022-09-22T14:43:28.983Z,18.41
2022-09-22T14:45:32.779Z,18.35
2022-09-22T14:47:39.495Z,18.38
2022-09-22T14:49:44.568Z,18.39
2022-09-22T14:51:50.095Z,18.40
2022-09-22T14:54:01.499Z,18.40
2022-09-22T14:56:07.582Z,18.39
2022-09-22T14:58:18.600Z,18.42
2022-09-22T15:00:39.002Z,18.44
2022-09-22T15:02:44.522Z,18.45
2022-09-22T15:04:51.564Z,18.45
2022-09-22T15:06:57.534Z,18.45
2022-09-22T15:09:04.083Z,18.42
2022-09-22T15:11:07.227Z,18.43
2022-09-22T15:13:30.629Z,18.41
2022-09-22T15:15:33.718Z,18.41
2022-09-22T15:17:56.663Z,18.42
2022-09-22T15:19:59.851Z,18.42
2022-09-22T15:22:06.971Z,18.41
2022-09-22T15:24:10.814Z,18.38
2022-09-22T15:26:16.993Z,18.38
2022-09-22T15:28:23.700Z,18.36
2022-09-22T15:30:31.883Z,18.36
2022-09-22T15:32:34.955Z,18.35
2022-09-22T15:34:40.759Z,18.31
2022-09-22T15:36:46.514Z,18.23
2022-09-22T15:38:50.850Z,18.22
2022-09-22T15:40:53.991Z,18.19
2022-09-22T15:43:12.363Z,18.17
2022-09-22T15:45:18.667Z,18.12
2022-09-22T15:47:21.673Z,18.10
2022-09-22T15:49:26.452Z,18.08
2022-09-22T15:51:30.419Z,18.09
2022-09-22T15:53:35.010Z,18.04
2022-09-22T15:55:39.428Z,18.02
2022-09-22T15:57:43.543Z,17.99
2022-09-22T15:59:46.702Z,17.99
2022-09-22T16:01:49.783Z,17.99
2022-09-22T16:03:52.783Z,17.95
2022-09-22T16:05:58.027Z,17.95
2022-09-22T16:08:01.149Z,17.94
2022-09-22T16:10:04.391Z,17.89
2022-09-22T16:12:10.982Z,17.87
2022-09-22T16:14:14.253Z,17.84
2022-09-22T16:16:18.247Z,17.82
2022-09-22T16:18:21.346Z,17.84
2022-09-22T16:20:24.348Z,17.82
2022-09-22T16:22:27.435Z,17.80
2022-09-22T16:24:31.006Z,17.79
2022-09-22T16:26:33.987Z,17.77
2022-09-22T16:28:38.815Z,17.72
2022-09-22T16:30:41.814Z,17.71
2022-09-22T16:32:44.790Z,17.69
2022-09-22T16:34:48.037Z,17.64
2022-09-22T16:36:52.515Z,17.64
2022-09-22T16:38:56.270Z,17.64
2022-09-22T16:41:02.770Z,17.60
2022-09-22T16:43:07.484Z,17.58
2022-09-22T16:45:12.096Z,17.56
2022-09-22T16:47:15.755Z,17.53
2022-09-22T16:49:20.354Z,17.47
2022-09-22T16:51:23.375Z,17.45
2022-09-22T16:53:26.492Z,17.40
2022-09-22T16:55:29.635Z,17.37
2022-09-22T16:57:32.633Z,17.32
2022-09-22T16:59:35.692Z,17.27
2022-09-22T17:01:40.131Z,17.23
2022-09-22T17:03:43.196Z,17.19
2022-09-22T17:05:46.701Z,17.17
2022-09-22T17:07:50.070Z,17.13
2022-09-22T17:09:53.099Z,17.10
2022-09-22T17:11:57.883Z,17.06
2022-09-22T17:14:03.177Z,17.00
2022-09-22T17:16:09.994Z,16.94
2022-09-22T17:18:14.365Z,16.91
2022-09-22T17:20:17.593Z,16.85
2022-09-22T17:22:21.308Z,16.80
2022-09-22T17:24:25.739Z,16.73
2022-09-22T17:26:30.241Z,16.65
2022-09-22T17:28:33.518Z,16.61
2022-09-22T17:30:36.535Z,16.55
2022-09-22T17:32:39.685Z,16.51
2022-09-22T17:34:44.003Z,16.45
2022-09-22T17:36:47.301Z,16.35
2022-09-22T17:38:52.468Z,16.28
2022-09-22T17:41:07.178Z,16.18
2022-09-22T17:43:11.158Z,16.09
2022-09-22T17:45:14.294Z,16.02
2022-09-22T17:47:43.355Z,15.97
2022-09-22T17:50:05.227Z,15.91
2022-09-22T17:52:27.248Z,15.80
2022-09-22T17:54:49.448Z,15.72
2022-09-22T17:56:52.401Z,15.63
2022-09-22T17:58:55.434Z,15.57
2022-09-22T18:00:58.366Z,15.55
2022-09-22T18:03:02.311Z,15.47
2022-09-22T18:05:08.423Z,15.43
2022-09-22T18:07:17.747Z,15.35
2022-09-22T18:09:21.981Z,15.31
2022-09-22T18:11:27.211Z,15.27
2022-09-22T18:13:30.206Z,15.23
2022-09-22T18:15:33.266Z,15.20
2022-09-22T18:17:41.293Z,15.17
2022-09-22T18:19:44.390Z,15.16
2022-09-22T18:21:48.698Z,15.14
2022-09-22T18:23:52.606Z,15.10
2022-09-22T18:26:02.186Z,15.08
2022-09-22T18:28:05.609Z,15.04
2022-09-22T18:30:14.185Z,15.01
2022-09-22T18:32:20.341Z,14.98
2022-09-22T18:34:23.716Z,14.90
2022-09-22T18:36:28.385Z,14.88
2022-09-22T18:38:33.416Z,14.85
2022-09-22T18:40:36.877Z,14.83
2022-09-22T18:42:41.363Z,14.81
2022-09-22T18:44:44.431Z,14.81
2022-09-22T18:46:48.198Z,14.79
2022-09-22T18:49:04.465Z,14.74
2022-09-22T18:51:07.921Z,14.65
2022-09-22T18:53:10.877Z,14.56
2022-09-22T18:55:17.330Z,14.47
2022-09-22T18:57:22.547Z,14.34
2022-09-22T18:59:27.463Z,14.25
2022-09-22T19:01:34.436Z,14.20
2022-09-22T19:03:38.550Z,14.15
2022-09-22T19:05:41.559Z,14.08
2022-09-22T19:07:47.671Z,14.03
2022-09-22T19:09:52.378Z,13.96
2022-09-22T19:11:56.850Z,13.88
2022-09-22T19:13:59.928Z,13.83
2022-09-22T19:16:04.551Z,13.78
2022-09-22T19:18:07.607Z,13.72
2022-09-22T19:20:12.325Z,13.65
2022-09-22T19:22:15.724Z,13.59
2022-09-22T19:24:18.846Z,13.49
2022-09-22T19:26:23.220Z,13.45
2022-09-22T19:28:28.533Z,13.37
2022-09-22T19:30:31.784Z,13.29
2022-09-22T19:32:35.035Z,13.24
2022-09-22T19:34:38.077Z,13.19
2022-09-22T19:36:41.757Z,13.13
2022-09-22T19:38:44.724Z,13.07
2022-09-22T19:40:47.741Z,13.04
2022-09-22T19:42:52.341Z,13.00
2022-09-22T19:44:56.804Z,12.94
2022-09-22T19:47:00.012Z,12.84
2022-09-22T19:49:03.160Z,12.81
2022-09-22T19:51:06.501Z,12.76
2022-09-22T19:53:09.602Z,12.71
2022-09-22T19:55:12.957Z,12.67
2022-09-22T19:57:16.029Z,12.62
2022-09-22T19:59:19.743Z,12.58
2022-09-22T20:01:32.384Z,12.52
2022-09-22T20:03:35.409Z,12.46
2022-09-22T20:05:39.482Z,12.44
2022-09-22T20:07:42.530Z,12.43
2022-09-22T20:09:45.543Z,12.38
2022-09-22T20:11:51.926Z,12.34
2022-09-22T20:14:12.229Z,12.30
2022-09-22T20:16:15.169Z,12.24
2022-09-22T20:18:22.081Z,12.19
2022-09-22T20:20:26.892Z,12.15
2022-09-22T20:22:30.542Z,12.11
2022-09-22T20:24:34.044Z,12.08
2022-09-22T20:26:40.516Z,12.04
2022-09-22T20:28:44.005Z,11.99
2022-09-22T20:30:47.333Z,11.95
2022-09-22T20:32:51.096Z,11.92
2022-09-22T20:34:56.452Z,11.87
2022-09-22T20:36:59.505Z,11.80
2022-09-22T20:39:02.575Z,11.77
2022-09-22T20:41:05.757Z,11.75
2022-09-22T20:43:11.835Z,11.72
2022-09-22T20:45:15.408Z,11.73
2022-09-22T20:47:25.522Z,11.69
2022-09-22T20:49:28.597Z,11.63
2022-09-22T20:51:34.034Z,11.58
2022-09-22T20:53:37.992Z,11.56
2022-09-22T20:55:40.934Z,11.50
2022-09-22T20:57:43.897Z,11.47
2022-09-22T20:59:47.614Z,11.46
2022-09-22T21:01:50.638Z,11.43
2022-09-22T21:03:53.617Z,11.38
2022-09-22T21:05:59.971Z,11.34
2022-09-22T21:08:18.279Z,11.31
2022-09-22T21:10:36.452Z,11.27
2022-09-22T21:12:39.771Z,11.21
2022-09-22T21:14:45.923Z,11.20
2022-09-22T21:16:49.379Z,11.18
2022-09-22T21:18:53.106Z,11.13
2022-09-22T21:20:57.431Z,11.05
2022-09-22T21:23:01.189Z,11.03
2022-09-22T21:25:06.342Z,11.03
2022-09-22T21:27:09.496Z,11.01
2022-09-22T21:29:12.413Z,10.96
2022-09-22T21:31:15.514Z,10.95
2022-09-22T21:33:18.507Z,10.91
2022-09-22T21:35:21.440Z,10.87
2022-09-22T21:37:25.068Z,10.83
2022-09-22T21:39:28.113Z,10.80
2022-09-22T21:41:33.110Z,10.77
2022-09-22T21:43:36.484Z,10.73
2022-09-22T21:45:39.377Z,10.73
2022-09-22T21:47:42.281Z,10.71
2022-09-22T21:49:45.201Z,10.69
2022-09-22T21:51:48.348Z,10.67
2022-09-22T21:53:53.874Z,10.64
2022-09-22T21:55:58.374Z,10.62
2022-09-22T21:58:02.730Z,10.61
2022-09-22T22:00:08.106Z,10.54
2022-09-22T22:02:14.910Z,10.50
2022-09-22T22:04:18.236Z,10.48
2022-09-22T22:06:22.425Z,10.43
2022-09-22T22:08:25.345Z,10.38
2022-09-22T22:10:28.400Z,10.37
2022-09-22T22:12:31.356Z,10.35
2022-09-22T22:14:35.729Z,10.32
2022-09-22T22:16:40.398Z,10.31
2022-09-22T22:18:43.479Z,10.30
2022-09-22T22:20:46.456Z,10.31
2022-09-22T22:22:49.562Z,10.29
2022-09-22T22:24:52.679Z,10.26
2022-09-22T22:26:57.453Z,10.25
2022-09-22T22:29:00.541Z,10.21
2022-09-22T22:31:07.015Z,10.17
2022-09-22T22:33:10.129Z,10.14
2022-09-22T22:35:13.121Z,10.11
2022-09-22T22:37:16.781Z,10.08
2022-09-22T22:39:19.860Z,10.05
2022-09-22T22:41:22.822Z,10.04
2022-09-22T22:43:25.775Z,10.01
2022-09-22T22:45:28.750Z,10.00
2022-09-22T22:47:34.165Z,9.97
2022-09-22T22:49:37.221Z,9.97
2022-09-22T22:51:42.733Z,9.96
2022-09-22T22:53:46.118Z,9.97
2022-09-22T22:55:57.217Z,9.93
2022-09-22T22:58:00.191Z,9.92
2022-09-22T23:00:03.473Z,9.91
2022-09-22T23:02:06.451Z,9.87
2022-09-22T23:04:11.835Z,9.87
2022-09-22T23:06:16.947Z,9.84
2022-09-22T23:08:19.903Z,9.82
2022-09-22T23:10:23.003Z,9.81
2022-09-22T23:12:25.888Z,9.79
2022-09-22T23:14:28.825Z,9.78
2022-09-22T23:16:33.426Z,9.78
2022-09-22T23:18:38.087Z,9.76
2022-09-22T23:20:42.547Z,9.75
2022-09-22T23:22:45.511Z,9.71
2022-09-22T23:24:49.112Z,9.69
2022-09-22T23:26:52.053Z,9.69
2022-09-22T23:28:55.191Z,9.68
2022-09-22T23:30:58.709Z,9.66
2022-09-22T23:33:01.735Z,9.65
2022-09-22T23:35:06.599Z,9.60
2022-09-22T23:37:11.247Z,9.59
2022-09-22T23:39:14.197Z,9.57
2022-09-22T23:41:17.125Z,9.55
2022-09-22T23:43:20.172Z,9.54
2022-09-22T23:45:23.088Z,9.53
2022-09-22T23:47:26.022Z,9.52
2022-09-22T23:49:29.000Z,9.50
2022-09-22T23:51:32.249Z,9.49
2022-09-22T23:53:38.012Z,9.46
2022-09-22T23:55:41.495Z,9.47
2022-09-22T23:57:44.387Z,9.43
2022-09-22T23:59:47.353Z,9.42
